createdAt,value
2018-06-30T00:03:10.719Z,99315.02
2018-06-30T00:07:14.157Z,99317.77
2018-06-30T00:11:17.824Z,99310.74
2018-06-30T00:15:21.285Z,99308.21
2018-06-30T00:19:24.765Z,99304.42
2018-06-30T00:23:28.197Z,99300.06
2018-06-30T00:27:31.605Z,99303.08
2018-06-30T00:31:35.038Z,99308.36
2018-06-30T00:35:38.502Z,99297.64
2018-06-30T00:39:41.938Z,99298.41
2018-06-30T00:43:45.393Z,99308.08
2018-06-30T00:47:48.823Z,99306.52
2018-06-30T00:51:52.223Z,99302.72
2018-06-30T00:55:55.663Z,99294.93
2018-06-30T00:59:59.250Z,99287.73
2018-06-30T01:04:02.687Z,99292.11
2018-06-30T01:08:06.678Z,99291.58
2018-06-30T01:12:10.121Z,99283.80
2018-06-30T01:16:13.582Z,99284.75
2018-06-30T01:20:17.371Z,99287.57
2018-06-30T01:24:20.807Z,99285.03
2018-06-30T01:28:24.279Z,99282.13
2018-06-30T01:32:27.790Z,99291.22
2018-06-30T01:36:31.261Z,99278.53
2018-06-30T01:40:34.706Z,99293.00
2018-06-30T01:44:38.479Z,99285.66
2018-06-30T01:48:41.868Z,99291.56
2018-06-30T01:52:45.294Z,99295.72
2018-06-30T01:56:48.710Z,99299.86
2018-06-30T02:00:52.145Z,99300.09
2018-06-30T02:04:55.597Z,99296.67
2018-06-30T02:08:59.050Z,99299.58
2018-06-30T02:13:02.558Z,99306.47
2018-06-30T02:17:05.990Z,99299.13
2018-06-30T02:21:09.419Z,99300.69
2018-06-30T02:25:12.878Z,99310.62
2018-06-30T02:29:16.334Z,99303.21
2018-06-30T02:33:19.792Z,99301.94
2018-06-30T02:37:23.225Z,99293.67
2018-06-30T02:41:26.678Z,99300.45
2018-06-30T02:45:30.166Z,99301.13
2018-06-30T02:49:33.612Z,99307.56
2018-06-30T02:53:37.085Z,99312.23
2018-06-30T02:57:40.597Z,99312.23
2018-06-30T03:01:44.096Z,99317.17
2018-06-30T03:05:47.606Z,99321.41
2018-06-30T03:09:51.012Z,99320.98
2018-06-30T03:13:54.458Z,99322.33
2018-06-30T03:17:57.881Z,99317.88
2018-06-30T03:22:01.316Z,99315.58
2018-06-30T03:26:04.741Z,99310.65
2018-06-30T03:30:08.180Z,99317.94
2018-06-30T03:34:11.585Z,99318.00
2018-06-30T03:38:15.098Z,99321.53
2018-06-30T03:42:18.545Z,99337.50
2018-06-30T03:46:22.028Z,99333.62
2018-06-30T03:50:25.412Z,99331.36
2018-06-30T03:54:28.838Z,99334.83
2018-06-30T03:58:32.283Z,99338.30
2018-06-30T04:02:35.711Z,99340.91
2018-06-30T04:06:39.174Z,99339.03
2018-06-30T04:10:42.668Z,99338.42
2018-06-30T04:14:46.267Z,99337.88
2018-06-30T04:18:49.763Z,99344.50
2018-06-30T04:22:53.261Z,99343.83
2018-06-30T04:26:56.710Z,99338.91
2018-06-30T04:31:00.961Z,99344.19
2018-06-30T04:35:04.562Z,99341.58
2018-06-30T04:39:09.113Z,99348.55
2018-06-30T04:43:12.582Z,99340.88
2018-06-30T04:47:16.022Z,99344.72
2018-06-30T04:51:19.463Z,99341.38
2018-06-30T04:55:22.897Z,99348.72
2018-06-30T04:59:26.332Z,99344.45
2018-06-30T05:03:29.798Z,99350.78
2018-06-30T05:07:33.256Z,99353.13
2018-06-30T05:11:36.704Z,99354.98
2018-06-30T05:15:40.134Z,99362.64
2018-06-30T05:19:43.545Z,99363.10
2018-06-30T05:23:46.964Z,99363.20
2018-06-30T05:27:50.385Z,99361.73
2018-06-30T05:31:53.875Z,99382.12
2018-06-30T05:35:57.350Z,99387.41
2018-06-30T05:40:00.766Z,99379.92
2018-06-30T05:44:04.309Z,99386.34
2018-06-30T05:48:07.755Z,99382.32
2018-06-30T05:52:11.168Z,99403.70
2018-06-30T05:56:14.624Z,99404.67
2018-06-30T06:00:18.074Z,99408.27
2018-06-30T06:04:21.509Z,99418.06
2018-06-30T06:08:24.937Z,99415.38
2018-06-30T06:12:28.368Z,99410.67
2018-06-30T06:16:32.057Z,99423.24
2018-06-30T06:20:35.504Z,99419.25
2018-06-30T06:24:38.952Z,99418.97
2018-06-30T06:28:42.355Z,99417.05
2018-06-30T06:32:45.802Z,99425.67
2018-06-30T06:36:49.200Z,99431.52
2018-06-30T06:40:52.622Z,99433.71
2018-06-30T06:44:56.087Z,99441.51
2018-06-30T06:48:59.576Z,99439.90
2018-06-30T06:53:03.005Z,99447.14
2018-06-30T06:57:06.438Z,99455.73
2018-06-30T07:01:09.855Z,99457.14
2018-06-30T07:05:13.284Z,99459.88
2018-06-30T07:09:16.728Z,99448.89
2018-06-30T07:13:20.204Z,99453.59
2018-06-30T07:17:23.654Z,99456.44
2018-06-30T07:21:27.333Z,99465.27
2018-06-30T07:25:30.784Z,99476.06
2018-06-30T07:29:34.223Z,99472.86
2018-06-30T07:33:37.939Z,99486.40
2018-06-30T07:37:41.403Z,99483.70
2018-06-30T07:41:44.833Z,99486.85
2018-06-30T07:45:48.647Z,99491.61
2018-06-30T07:49:52.076Z,99495.69
2018-06-30T07:53:55.547Z,99495.95
2018-06-30T07:57:59.059Z,99496.97
2018-06-30T08:02:06.275Z,99497.04
2018-06-30T08:06:10.006Z,99503.80
2018-06-30T08:10:13.505Z,99513.95
2018-06-30T08:14:16.975Z,99515.25
2018-06-30T08:18:20.388Z,99513.61
2018-06-30T08:22:23.827Z,99518.45
2018-06-30T08:26:27.274Z,99525.66
2018-06-30T08:30:31.145Z,99518.70
2018-06-30T08:34:34.653Z,99535.03
2018-06-30T08:38:38.078Z,99536.31
2018-06-30T08:42:41.773Z,99536.38
2018-06-30T08:46:45.208Z,99538.62
2018-06-30T08:50:48.670Z,99542.06
2018-06-30T08:54:52.207Z,99540.62
2018-06-30T08:58:55.730Z,99541.27
2018-06-30T09:02:59.124Z,99554.37
2018-06-30T09:07:02.535Z,99550.52
2018-06-30T09:11:06.718Z,99557.52
2018-06-30T09:15:11.096Z,99561.83
2018-06-30T09:19:14.687Z,99573.33
2018-06-30T09:23:18.159Z,99570.17
2018-06-30T09:31:24.624Z,99566.56
2018-06-30T09:35:28.553Z,99561.30
2018-06-30T09:39:32.095Z,99553.08
2018-06-30T09:43:37.289Z,99561.67
2018-06-30T09:47:41.008Z,99557.43
2018-06-30T09:51:44.477Z,99553.92
2018-06-30T09:55:47.865Z,99553.23
2018-06-30T09:59:51.383Z,99567.07
2018-06-30T10:03:54.800Z,99559.58
2018-06-30T10:07:58.206Z,99563.27
2018-06-30T10:12:01.586Z,99562.70
2018-06-30T10:16:04.981Z,99564.05
2018-06-30T10:20:08.428Z,99557.53
2018-06-30T10:24:11.844Z,99555.78
2018-06-30T10:28:15.277Z,99554.59
2018-06-30T10:32:18.700Z,99549.80
2018-06-30T10:36:22.250Z,99550.20
2018-06-30T10:40:25.653Z,99553.34
2018-06-30T10:44:29.071Z,99543.49
2018-06-30T10:48:32.510Z,99549.64
2018-06-30T10:52:35.979Z,99546.11
2018-06-30T10:56:39.406Z,99555.05
2018-06-30T11:00:43.127Z,99550.80
2018-06-30T11:04:46.554Z,99546.58
2018-06-30T11:08:49.994Z,99546.98
2018-06-30T11:12:53.438Z,99547.31
2018-06-30T11:16:56.992Z,99535.99
2018-06-30T11:21:00.523Z,99540.66
2018-06-30T11:25:04.067Z,99546.81
2018-06-30T11:29:07.435Z,99543.08
2018-06-30T11:33:10.861Z,99545.38
2018-06-30T11:37:14.259Z,99543.53
2018-06-30T11:41:17.716Z,99540.89
2018-06-30T11:45:21.164Z,99528.23
2018-06-30T11:49:24.571Z,99532.80
2018-06-30T11:53:28.019Z,99541.03
2018-06-30T11:57:31.436Z,99537.97
2018-06-30T12:01:34.862Z,99528.89
2018-06-30T12:05:38.354Z,99544.64
2018-06-30T12:09:41.796Z,99541.30
2018-06-30T12:13:45.221Z,99544.31
2018-06-30T12:17:48.674Z,99545.09
2018-06-30T12:21:52.130Z,99540.98
2018-06-30T12:25:55.528Z,99540.45
2018-06-30T12:29:58.987Z,99541.79
2018-06-30T12:34:03.285Z,99537.56
2018-06-30T12:38:07.140Z,99542.78
2018-06-30T12:42:10.574Z,99555.57
2018-06-30T12:46:13.983Z,99548.94
2018-06-30T12:50:17.417Z,99550.44
2018-06-30T12:54:20.871Z,99555.09
2018-06-30T12:58:24.938Z,99553.83
2018-06-30T13:02:33.774Z,99551.63
2018-06-30T13:06:37.309Z,99552.19
2018-06-30T13:10:40.707Z,99563.66
2018-06-30T13:14:44.124Z,99567.64
2018-06-30T13:18:48.118Z,99559.42
2018-06-30T13:22:52.050Z,99566.42
2018-06-30T13:26:55.474Z,99563.27
2018-06-30T13:30:58.900Z,99581.78
2018-06-30T13:35:02.305Z,99586.61
2018-06-30T13:39:10.159Z,99573.66
2018-06-30T13:43:13.588Z,99591.13
2018-06-30T13:47:17.002Z,99581.02
2018-06-30T13:51:20.448Z,99593.26
2018-06-30T13:55:23.979Z,99589.79
2018-06-30T13:59:27.395Z,99593.56
2018-06-30T14:03:30.814Z,99588.38
2018-06-30T14:07:34.282Z,99585.28
2018-06-30T14:11:37.690Z,99585.51
2018-06-30T14:15:41.150Z,99592.56
2018-06-30T14:19:44.574Z,99596.18
2018-06-30T14:23:48.238Z,99594.91
2018-06-30T14:27:51.638Z,99600.47
2018-06-30T14:31:55.400Z,99597.86
2018-06-30T14:35:59.299Z,99607.97
2018-06-30T14:40:02.722Z,99614.13
2018-06-30T14:44:06.936Z,99613.26
2018-06-30T14:48:10.372Z,99624.14
2018-06-30T14:52:13.734Z,99622.39
2018-06-30T14:56:17.128Z,99621.13
2018-06-30T15:00:20.535Z,99619.26
2018-06-30T15:04:23.959Z,99633.84
2018-06-30T15:08:27.402Z,99639.64
2018-06-30T15:12:31.044Z,99636.72
2018-06-30T15:16:34.474Z,99636.39
2018-06-30T15:20:37.886Z,99643.08
2018-06-30T15:24:41.301Z,99647.66
2018-06-30T15:28:44.777Z,99649.86
2018-06-30T15:32:48.873Z,99655.12
2018-06-30T15:36:52.422Z,99658.13
2018-06-30T15:40:55.840Z,99662.91
2018-06-30T15:45:00.424Z,99671.78
2018-06-30T15:49:03.880Z,99666.63
2018-06-30T15:53:07.278Z,99683.13
2018-06-30T15:57:10.728Z,99675.36
2018-06-30T16:01:14.154Z,99677.86
2018-06-30T16:05:17.589Z,99667.88
2018-06-30T16:09:21.047Z,99668.91
2018-06-30T16:13:24.455Z,99673.61
2018-06-30T16:17:27.884Z,99679.69
2018-06-30T16:21:31.489Z,99683.91
2018-06-30T16:25:35.101Z,99695.47
2018-06-30T16:29:38.534Z,99695.73
2018-06-30T16:33:42.224Z,99698.53
2018-06-30T16:37:45.657Z,99704.98
2018-06-30T16:41:49.064Z,99703.89
2018-06-30T16:45:52.523Z,99711.20
2018-06-30T16:49:56.007Z,99703.29
2018-06-30T16:53:59.440Z,99716.11
2018-06-30T16:58:02.884Z,99721.11
2018-06-30T17:02:06.539Z,99714.16
2018-06-30T17:06:10.024Z,99716.75
2018-06-30T17:10:13.398Z,99718.75
2018-06-30T17:14:16.970Z,99726.70
2018-06-30T17:18:20.371Z,99720.70
2018-06-30T17:22:23.811Z,99736.94
2018-06-30T17:26:27.510Z,99734.37
2018-06-30T17:30:30.916Z,99743.27
2018-06-30T17:34:39.159Z,99745.27
2018-06-30T17:38:42.634Z,99745.91
2018-06-30T17:42:46.077Z,99757.26
2018-06-30T17:46:49.459Z,99760.16
2018-06-30T17:50:52.950Z,99758.72
2018-06-30T17:54:58.786Z,99765.24
2018-06-30T17:59:03.303Z,99772.63
2018-06-30T18:03:06.951Z,99776.36
2018-06-30T18:07:10.508Z,99778.33
2018-06-30T18:11:13.930Z,99777.69
2018-06-30T18:15:17.371Z,99785.55
2018-06-30T18:19:20.792Z,99786.23
2018-06-30T18:23:24.194Z,99791.34
2018-06-30T18:27:30.968Z,99799.99
2018-06-30T18:31:34.549Z,99794.46
2018-06-30T18:35:38.077Z,99800.02
2018-06-30T18:39:41.634Z,99806.92
2018-06-30T18:43:45.069Z,99807.12
2018-06-30T18:47:48.503Z,99810.08
2018-06-30T18:51:51.933Z,99813.41
2018-06-30T18:55:55.334Z,99815.98
2018-06-30T18:59:58.751Z,99819.78
2018-06-30T19:04:02.604Z,99830.16
2018-06-30T19:08:06.876Z,99828.13
2018-06-30T19:12:10.503Z,99834.59
2018-06-30T19:16:13.916Z,99841.05
2018-06-30T19:20:17.271Z,99848.77
2018-06-30T19:24:20.832Z,99852.94
2018-06-30T19:28:24.649Z,99852.84
2018-06-30T19:32:28.068Z,99859.64
2018-06-30T19:36:31.571Z,99866.05
2018-06-30T19:40:35.361Z,99875.24
2018-06-30T19:44:38.790Z,99877.67
2018-06-30T19:48:42.202Z,99877.72
2018-06-30T19:52:45.709Z,99877.02
2018-06-30T19:56:49.409Z,99878.66
2018-06-30T20:00:52.842Z,99884.16
2018-06-30T20:04:57.394Z,99887.48
2018-06-30T20:09:00.809Z,99890.80
2018-06-30T20:13:04.223Z,99897.11
2018-06-30T20:17:07.666Z,99903.96
2018-06-30T20:21:11.297Z,99906.23
2018-06-30T20:25:14.746Z,99909.65
2018-06-30T20:29:18.187Z,99911.55
2018-06-30T20:33:29.873Z,99911.63
2018-06-30T20:37:33.944Z,99920.19
2018-06-30T20:41:38.965Z,99916.37
2018-06-30T20:45:43.056Z,99914.60
2018-06-30T20:49:46.546Z,99919.56
2018-06-30T20:53:50.127Z,99927.69
2018-06-30T20:57:53.583Z,99932.58
2018-06-30T21:01:57.005Z,99932.22
2018-06-30T21:06:00.455Z,99937.67
2018-06-30T21:10:04.448Z,99941.41
2018-06-30T21:14:07.922Z,99941.53
2018-06-30T21:18:11.405Z,99940.70
2018-06-30T21:22:14.817Z,99944.25
2018-06-30T21:26:18.245Z,99946.98
2018-06-30T21:30:21.738Z,99952.83
2018-06-30T21:34:25.316Z,99952.92
2018-06-30T21:38:28.709Z,99951.28
2018-06-30T21:42:32.253Z,99961.58
2018-06-30T21:46:35.984Z,99961.20
2018-06-30T21:50:39.879Z,99963.61
2018-06-30T21:54:43.294Z,99966.36
2018-06-30T21:58:46.710Z,99969.58
2018-06-30T22:02:50.153Z,99961.63
2018-06-30T22:06:53.594Z,99965.67
2018-06-30T22:10:57.101Z,99967.48
2018-06-30T22:15:01.426Z,99966.68
2018-06-30T22:19:04.871Z,99968.95
2018-06-30T22:23:08.282Z,99965.45
2018-06-30T22:27:11.688Z,99959.80
2018-06-30T22:31:15.090Z,99964.13
2018-06-30T22:35:18.484Z,99968.66
2018-06-30T22:39:33.072Z,99978.81
2018-06-30T22:43:37.273Z,99973.58
2018-06-30T22:47:40.680Z,99973.61
2018-06-30T22:51:44.147Z,99976.78
2018-06-30T22:55:47.574Z,99970.63
2018-06-30T22:59:51.013Z,99976.83
2018-06-30T23:03:54.806Z,99976.83
2018-06-30T23:07:58.317Z,99978.19
2018-06-30T23:12:01.709Z,99972.05
2018-06-30T23:16:05.323Z,99977.00
2018-06-30T23:20:09.329Z,99981.41
2018-06-30T23:24:12.749Z,99983.23
2018-06-30T23:28:16.443Z,99981.08
2018-06-30T23:32:19.867Z,99976.69
2018-06-30T23:36:23.292Z,99968.84
2018-06-30T23:40:26.681Z,99979.06
2018-06-30T23:44:30.133Z,99975.12
2018-06-30T23:48:33.650Z,99968.09
2018-06-30T23:52:37.425Z,99971.72
2018-06-30T23:56:40.848Z,99968.24
